Shrewsbury Township, New Jersey
Current Conditions -  °F | °C
As of 9:55 AM on Saturday 20 Dec 2014 (Local Time) from KBLM Reporting Station
Overcast Overcast  
Wind Chill: 26°   Ceiling: 2600
Heat Index: 32°   Visibility: 10mi
Dew Point: 18°   Wind: 7mph
Humidity: 55%   Direction: 290°WNW
Pressure: 30.3"   Gusts: NA
Location:  40.2996°N, 74.074°W
Report Text: KBLM 201455Z AUTO 29006KT 10SM OVC026 00/M08 A3030 RMK AO1 52017
Loading
Personal Weather Stations






























Interactive Weather Map New forecast layout! Learn more

10-Day Weather Forecast

Advertisements
Track Severe Weather on mobile